sensor_id;sensor_type;location;lat;lon;timestamp;pressure;altitude;pressure_sealevel;temperature;humidity
35806;BME280;21925;44.608;11.580;2023-05-14T00:00:27;101470.66;;;18.33;100.00
35806;BME280;21925;44.608;11.580;2023-05-14T00:02:53;101489.91;;;18.55;100.00
35806;BME280;21925;44.608;11.580;2023-05-14T00:05:19;101398.09;;;18.02;100.00
35806;BME280;21925;44.608;11.580;2023-05-14T00:07:44;101494.69;;;18.58;100.00
35806;BME280;21925;44.608;11.580;2023-05-14T00:10:10;101488.28;;;18.51;100.00
35806;BME280;21925;44.608;11.580;2023-05-14T00:12:37;101485.72;;;18.36;100.00
35806;BME280;21925;44.608;11.580;2023-05-14T00:15:04;101491.22;;;18.29;100.00
35806;BME280;21925;44.608;11.580;2023-05-14T00:17:30;101495.72;;;18.43;100.00
35806;BME280;21925;44.608;11.580;2023-05-14T00:19:55;101491.81;;;18.48;100.00
35806;BME280;21925;44.608;11.580;2023-05-14T00:22:21;101491.94;;;18.22;100.00
35806;BME280;21925;44.608;11.580;2023-05-14T00:24:48;101468.91;;;17.56;100.00
35806;BME280;21925;44.608;11.580;2023-05-14T00:27:14;101488.78;;;17.91;100.00
35806;BME280;21925;44.608;11.580;2023-05-14T00:29:43;101461.63;;;17.45;100.00
35806;BME280;21925;44.608;11.580;2023-05-14T00:32:10;101472.34;;;17.20;100.00
35806;BME280;21925;44.608;11.580;2023-05-14T00:34:36;101471.22;;;16.99;100.00
35806;BME280;21925;44.608;11.580;2023-05-14T00:37:02;101460.72;;;16.85;100.00
35806;BME280;21925;44.608;11.580;2023-05-14T00:39:28;101482.56;;;17.16;100.00
35806;BME280;21925;44.608;11.580;2023-05-14T00:41:54;101472.53;;;17.31;100.00
35806;BME280;21925;44.608;11.580;2023-05-14T00:44:20;101477.47;;;17.44;100.00
35806;BME280;21925;44.608;11.580;2023-05-14T00:46:46;101481.50;;;17.50;100.00
35806;BME280;21925;44.608;11.580;2023-05-14T00:49:14;101453.59;;;17.10;100.00
35806;BME280;21925;44.608;11.580;2023-05-14T00:51:40;101469.97;;;17.22;100.00
35806;BME280;21925;44.608;11.580;2023-05-14T00:54:07;101449.06;;;16.99;100.00
35806;BME280;21925;44.608;11.580;2023-05-14T00:56:33;101456.06;;;17.19;100.00
35806;BME280;21925;44.608;11.580;2023-05-14T00:58:59;101458.66;;;17.31;100.00
35806;BME280;21925;44.608;11.580;2023-05-14T01:01:25;101455.22;;;17.41;100.00
35806;BME280;21925;44.608;11.580;2023-05-14T01:03:53;101443.72;;;17.39;100.00
35806;BME280;21925;44.608;11.580;2023-05-14T01:09:43;101445.75;;;17.74;100.00
35806;BME280;21925;44.608;11.580;2023-05-14T01:14:55;101437.31;;;17.64;100.00
35806;BME280;21925;44.608;11.580;2023-05-14T01:17:25;101426.66;;;17.66;100.00
35806;BME280;21925;44.608;11.580;2023-05-14T01:19:54;101429.47;;;17.69;100.00
35806;BME280;21925;44.608;11.580;2023-05-14T01:22:19;101422.28;;;17.65;100.00
35806;BME280;21925;44.608;11.580;2023-05-14T01:24:45;101411.69;;;17.74;100.00
35806;BME280;21925;44.608;11.580;2023-05-14T01:27:19;101422.44;;;17.79;100.00
35806;BME280;21925;44.608;11.580;2023-05-14T01:30:18;101419.16;;;17.70;100.00
35806;BME280;21925;44.608;11.580;2023-05-14T01:32:47;101421.34;;;17.54;100.00
35806;BME280;21925;44.608;11.580;2023-05-14T01:35:17;101416.19;;;17.53;100.00
35806;BME280;21925;44.608;11.580;2023-05-14T01:37:43;101391.56;;;17.18;100.00
35806;BME280;21925;44.608;11.580;2023-05-14T01:40:11;101415.38;;;17.23;100.00
35806;BME280;21925;44.608;11.580;2023-05-14T01:42:38;101413.44;;;17.01;100.00
35806;BME280;21925;44.608;11.580;2023-05-14T01:45:05;101407.16;;;17.04;100.00
35806;BME280;21925;44.608;11.580;2023-05-14T01:47:31;101409.00;;;17.22;100.00
35806;BME280;21925;44.608;11.580;2023-05-14T01:49:57;101382.91;;;17.23;100.00
35806;BME280;21925;44.608;11.580;2023-05-14T01:52:26;101395.03;;;17.41;100.00
35806;BME280;21925;44.608;11.580;2023-05-14T01:54:52;101392.25;;;17.12;100.00
35806;BME280;21925;44.608;11.580;2023-05-14T01:57:18;101387.69;;;17.26;100.00
35806;BME280;21925;44.608;11.580;2023-05-14T01:59:45;101385.50;;;17.39;100.00
35806;BME280;21925;44.608;11.580;2023-05-14T02:02:11;101376.19;;;17.24;100.00
35806;BME280;21925;44.608;11.580;2023-05-14T02:04:36;101369.38;;;17.18;100.00
35806;BME280;21925;44.608;11.580;2023-05-14T02:07:03;101381.25;;;17.19;100.00
35806;BME280;21925;44.608;11.580;2023-05-14T02:09:29;101357.13;;;17.19;100.00
35806;BME280;21925;44.608;11.580;2023-05-14T02:11:55;101362.97;;;17.14;100.00
35806;BME280;21925;44.608;11.580;2023-05-14T02:14:20;101360.38;;;16.95;100.00
35806;BME280;21925;44.608;11.580;2023-05-14T02:16:47;101364.41;;;17.01;100.00
35806;BME280;21925;44.608;11.580;2023-05-14T02:19:15;101379.38;;;16.97;100.00
35806;BME280;21925;44.608;11.580;2023-05-14T02:21:41;101387.94;;;16.88;100.00
35806;BME280;21925;44.608;11.580;2023-05-14T02:24:07;101386.09;;;17.25;100.00
35806;BME280;21925;44.608;11.580;2023-05-14T02:26:33;101361.19;;;16.99;100.00
35806;BME280;21925;44.608;11.580;2023-05-14T02:28:59;101355.13;;;16.65;100.00
35806;BME280;21925;44.608;11.580;2023-05-14T02:31:24;101363.53;;;16.97;100.00
35806;BME280;21925;44.608;11.580;2023-05-14T02:33:50;101387.25;;;16.95;100.00
35806;BME280;21925;44.608;11.580;2023-05-14T02:36:16;101374.31;;;16.77;100.00
35806;BME280;21925;44.608;11.580;2023-05-14T02:38:41;101376.56;;;16.68;100.00
35806;BME280;21925;44.608;11.580;2023-05-14T02:41:07;101377.22;;;16.61;100.00
35806;BME280;21925;44.608;11.580;2023-05-14T02:43:33;101361.38;;;16.58;100.00
35806;BME280;21925;44.608;11.580;2023-05-14T02:45:59;101350.22;;;16.51;100.00
35806;BME280;21925;44.608;11.580;2023-05-14T02:48:25;101362.06;;;16.52;100.00
35806;BME280;21925;44.608;11.580;2023-05-14T02:50:50;101378.56;;;16.45;100.00
35806;BME280;21925;44.608;11.580;2023-05-14T02:53:17;101338.75;;;16.53;100.00
35806;BME280;21925;44.608;11.580;2023-05-14T02:55:42;101373.94;;;17.04;100.00
35806;BME280;21925;44.608;11.580;2023-05-14T02:58:08;101366.91;;;17.13;100.00
35806;BME280;21925;44.608;11.580;2023-05-14T03:00:34;101342.03;;;16.87;100.00
35806;BME280;21925;44.608;11.580;2023-05-14T03:03:00;101367.47;;;16.96;100.00
35806;BME280;21925;44.608;11.580;2023-05-14T03:05:26;101371.59;;;16.54;100.00
35806;BME280;21925;44.608;11.580;2023-05-14T03:07:52;101329.19;;;16.47;100.00
35806;BME280;21925;44.608;11.580;2023-05-14T03:10:18;101360.81;;;16.72;100.00
35806;BME280;21925;44.608;11.580;2023-05-14T03:12:44;101351.72;;;17.00;100.00
35806;BME280;21925;44.608;11.580;2023-05-14T03:15:10;101361.81;;;17.15;100.00
35806;BME280;21925;44.608;11.580;2023-05-14T03:17:36;101340.63;;;17.00;100.00
35806;BME280;21925;44.608;11.580;2023-05-14T03:20:02;101352.78;;;16.92;100.00
35806;BME280;21925;44.608;11.580;2023-05-14T03:22:28;101366.03;;;17.06;100.00
35806;BME280;21925;44.608;11.580;2023-05-14T03:24:57;101345.75;;;16.98;100.00
35806;BME280;21925;44.608;11.580;2023-05-14T03:27:22;101316.47;;;17.01;100.00
35806;BME280;21925;44.608;11.580;2023-05-14T03:29:48;101345.38;;;17.29;100.00
35806;BME280;21925;44.608;11.580;2023-05-14T03:32:14;101317.34;;;17.05;100.00
35806;BME280;21925;44.608;11.580;2023-05-14T03:34:40;101342.41;;;17.15;100.00
35806;BME280;21925;44.608;11.580;2023-05-14T03:37:07;101311.81;;;17.05;100.00
35806;BME280;21925;44.608;11.580;2023-05-14T03:39:33;101338.66;;;17.30;100.00
35806;BME280;21925;44.608;11.580;2023-05-14T03:41:58;101338.22;;;16.70;100.00
35806;BME280;21925;44.608;11.580;2023-05-14T03:44:24;101345.03;;;16.76;100.00
35806;BME280;21925;44.608;11.580;2023-05-14T03:46:50;101325.22;;;16.74;100.00
35806;BME280;21925;44.608;11.580;2023-05-14T03:49:16;101308.94;;;16.69;100.00
35806;BME280;21925;44.608;11.580;2023-05-14T03:51:42;101337.69;;;17.16;100.00
35806;BME280;21925;44.608;11.580;2023-05-14T03:54:08;101318.88;;;17.28;100.00
35806;BME280;21925;44.608;11.580;2023-05-14T03:56:34;101329.69;;;17.11;100.00
35806;BME280;21925;44.608;11.580;2023-05-14T03:59:04;101339.09;;;17.32;100.00
35806;BME280;21925;44.608;11.580;2023-05-14T04:01:31;101336.31;;;17.65;100.00
35806;BME280;21925;44.608;11.580;2023-05-14T04:04:01;101334.72;;;17.64;100.00
35806;BME280;21925;44.608;11.580;2023-05-14T04:06:27;101352.66;;;17.77;100.00
35806;BME280;21925;44.608;11.580;2023-05-14T04:08:54;101352.59;;;17.37;100.00
35806;BME280;21925;44.608;11.580;2023-05-14T04:11:20;101282.75;;;16.37;100.00
35806;BME280;21925;44.608;11.580;2023-05-14T04:13:48;101335.25;;;16.56;100.00
35806;BME280;21925;44.608;11.580;2023-05-14T04:16:14;101305.28;;;16.65;100.00
35806;BME280;21925;44.608;11.580;2023-05-14T04:18:41;101345.59;;;17.17;100.00
35806;BME280;21925;44.608;11.580;2023-05-14T04:21:07;101340.34;;;17.38;100.00
35806;BME280;21925;44.608;11.580;2023-05-14T04:23:38;101322.06;;;17.34;100.00
35806;BME280;21925;44.608;11.580;2023-05-14T04:26:04;101360.06;;;17.62;100.00
35806;BME280;21925;44.608;11.580;2023-05-14T04:28:34;101349.00;;;17.33;100.00
35806;BME280;21925;44.608;11.580;2023-05-14T04:31:00;101345.66;;;17.21;100.00
35806;BME280;21925;44.608;11.580;2023-05-14T04:33:27;101358.28;;;17.18;100.00
35806;BME280;21925;44.608;11.580;2023-05-14T04:35:52;101330.22;;;16.65;100.00
35806;BME280;21925;44.608;11.580;2023-05-14T04:38:18;101347.34;;;16.99;100.00
35806;BME280;21925;44.608;11.580;2023-05-14T04:40:44;101358.97;;;16.82;100.00
35806;BME280;21925;44.608;11.580;2023-05-14T04:43:10;101313.47;;;16.83;100.00
35806;BME280;21925;44.608;11.580;2023-05-14T04:45:36;101356.66;;;17.14;100.00
35806;BME280;21925;44.608;11.580;2023-05-14T04:48:03;101353.41;;;17.38;100.00
35806;BME280;21925;44.608;11.580;2023-05-14T04:50:29;101357.91;;;17.49;100.00
35806;BME280;21925;44.608;11.580;2023-05-14T04:52:55;101360.50;;;17.06;100.00
35806;BME280;21925;44.608;11.580;2023-05-14T04:55:22;101354.66;;;17.14;100.00
35806;BME280;21925;44.608;11.580;2023-05-14T04:57:48;101351.31;;;17.28;100.00
35806;BME280;21925;44.608;11.580;2023-05-14T05:00:16;101356.03;;;17.27;100.00
35806;BME280;21925;44.608;11.580;2023-05-14T05:02:42;101367.47;;;16.67;100.00
35806;BME280;21925;44.608;11.580;2023-05-14T05:05:08;101360.03;;;16.75;100.00
35806;BME280;21925;44.608;11.580;2023-05-14T05:07:34;101336.47;;;16.58;100.00
35806;BME280;21925;44.608;11.580;2023-05-14T05:10:00;101359.44;;;16.62;100.00
35806;BME280;21925;44.608;11.580;2023-05-14T05:12:26;101337.16;;;16.52;100.00
35806;BME280;21925;44.608;11.580;2023-05-14T05:14:57;101325.66;;;16.50;100.00
35806;BME280;21925;44.608;11.580;2023-05-14T05:17:24;101358.66;;;16.62;100.00
35806;BME280;21925;44.608;11.580;2023-05-14T05:19:49;101328.34;;;15.98;100.00
35806;BME280;21925;44.608;11.580;2023-05-14T05:22:16;101353.34;;;16.05;100.00
35806;BME280;21925;44.608;11.580;2023-05-14T05:24:42;101321.38;;;15.85;100.00
35806;BME280;21925;44.608;11.580;2023-05-14T05:27:08;101329.28;;;16.09;100.00
35806;BME280;21925;44.608;11.580;2023-05-14T05:29:34;101340.91;;;16.18;100.00
35806;BME280;21925;44.608;11.580;2023-05-14T05:32:00;101361.72;;;16.31;100.00
35806;BME280;21925;44.608;11.580;2023-05-14T05:34:35;101331.66;;;16.07;100.00
35806;BME280;21925;44.608;11.580;2023-05-14T05:37:02;101326.78;;;16.23;100.00
35806;BME280;21925;44.608;11.580;2023-05-14T05:39:28;101350.88;;;16.45;100.00
35806;BME280;21925;44.608;11.580;2023-05-14T05:42:00;101358.97;;;16.57;100.00
35806;BME280;21925;44.608;11.580;2023-05-14T05:44:26;101310.91;;;16.20;100.00
35806;BME280;21925;44.608;11.580;2023-05-14T05:47:01;101349.91;;;16.34;100.00
35806;BME280;21925;44.608;11.580;2023-05-14T05:49:27;101315.47;;;16.31;100.00
35806;BME280;21925;44.608;11.580;2023-05-14T05:51:57;101296.81;;;16.02;100.00
35806;BME280;21925;44.608;11.580;2023-05-14T05:54:26;101357.59;;;16.44;100.00
35806;BME280;21925;44.608;11.580;2023-05-14T05:56:55;101335.97;;;16.53;100.00
35806;BME280;21925;44.608;11.580;2023-05-14T05:59:21;101364.78;;;16.74;100.00
35806;BME280;21925;44.608;11.580;2023-05-14T06:01:47;101371.00;;;16.93;100.00
35806;BME280;21925;44.608;11.580;2023-05-14T06:04:13;101372.06;;;16.60;100.00
35806;BME280;21925;44.608;11.580;2023-05-14T06:06:39;101362.38;;;16.47;100.00
35806;BME280;21925;44.608;11.580;2023-05-14T06:09:08;101372.56;;;16.65;100.00
35806;BME280;21925;44.608;11.580;2023-05-14T06:11:35;101332.19;;;16.16;100.00
35806;BME280;21925;44.608;11.580;2023-05-14T06:14:01;101373.06;;;16.26;100.00
35806;BME280;21925;44.608;11.580;2023-05-14T06:16:30;101347.47;;;16.29;100.00
35806;BME280;21925;44.608;11.580;2023-05-14T06:18:57;101320.81;;;15.98;100.00
35806;BME280;21925;44.608;11.580;2023-05-14T06:21:23;101330.72;;;16.22;100.00
35806;BME280;21925;44.608;11.580;2023-05-14T06:23:49;101357.41;;;16.56;100.00
35806;BME280;21925;44.608;11.580;2023-05-14T06:26:16;101330.00;;;16.51;100.00
35806;BME280;21925;44.608;11.580;2023-05-14T06:28:42;101332.94;;;16.35;100.00
35806;BME280;21925;44.608;11.580;2023-05-14T06:31:08;101342.16;;;16.43;100.00
35806;BME280;21925;44.608;11.580;2023-05-14T06:33:34;101323.16;;;16.41;100.00
35806;BME280;21925;44.608;11.580;2023-05-14T06:36:04;101344.25;;;16.75;100.00
35806;BME280;21925;44.608;11.580;2023-05-14T06:38:30;101338.28;;;16.73;100.00
35806;BME280;21925;44.608;11.580;2023-05-14T06:41:01;101334.09;;;16.86;100.00
35806;BME280;21925;44.608;11.580;2023-05-14T06:43:36;101314.66;;;16.82;100.00
35806;BME280;21925;44.608;11.580;2023-05-14T06:46:10;101283.91;;;16.62;100.00
35806;BME280;21925;44.608;11.580;2023-05-14T06:48:39;101323.06;;;16.89;100.00
35806;BME280;21925;44.608;11.580;2023-05-14T06:51:05;101325.53;;;16.94;100.00
35806;BME280;21925;44.608;11.580;2023-05-14T06:53:39;101324.09;;;17.07;100.00
35806;BME280;21925;44.608;11.580;2023-05-14T06:56:06;101312.69;;;16.83;100.00
35806;BME280;21925;44.608;11.580;2023-05-14T06:58:35;101301.66;;;16.86;100.00
35806;BME280;21925;44.608;11.580;2023-05-14T07:01:03;101292.75;;;17.00;100.00
35806;BME280;21925;44.608;11.580;2023-05-14T07:03:33;101317.19;;;17.24;100.00
35806;BME280;21925;44.608;11.580;2023-05-14T07:06:04;101309.78;;;17.31;100.00
35806;BME280;21925;44.608;11.580;2023-05-14T07:08:48;101317.84;;;17.43;100.00
35806;BME280;21925;44.608;11.580;2023-05-14T07:11:21;101322.22;;;17.44;100.00
35806;BME280;21925;44.608;11.580;2023-05-14T07:13:55;101323.31;;;17.36;100.00
35806;BME280;21925;44.608;11.580;2023-05-14T07:16:24;101305.66;;;17.51;100.00
35806;BME280;21925;44.608;11.580;2023-05-14T07:18:55;101306.34;;;17.81;100.00
35806;BME280;21925;44.608;11.580;2023-05-14T07:21:22;101262.09;;;17.52;100.00
35806;BME280;21925;44.608;11.580;2023-05-14T07:23:49;101288.88;;;17.41;100.00
35806;BME280;21925;44.608;11.580;2023-05-14T07:26:22;101307.06;;;17.38;100.00
35806;BME280;21925;44.608;11.580;2023-05-14T07:28:51;101314.88;;;17.29;100.00
35806;BME280;21925;44.608;11.580;2023-05-14T07:31:18;101270.13;;;16.94;100.00
35806;BME280;21925;44.608;11.580;2023-05-14T07:33:47;101304.63;;;17.30;100.00
35806;BME280;21925;44.608;11.580;2023-05-14T07:36:13;101258.41;;;17.08;100.00
35806;BME280;21925;44.608;11.580;2023-05-14T07:38:43;101288.41;;;17.32;100.00
35806;BME280;21925;44.608;11.580;2023-05-14T07:41:09;101296.81;;;17.09;100.00
35806;BME280;21925;44.608;11.580;2023-05-14T07:43:37;101310.00;;;17.19;100.00
35806;BME280;21925;44.608;11.580;2023-05-14T07:46:06;101253.41;;;17.20;100.00
35806;BME280;21925;44.608;11.580;2023-05-14T07:48:42;101307.38;;;17.62;100.00
35806;BME280;21925;44.608;11.580;2023-05-14T07:51:16;101298.06;;;17.84;100.00
35806;BME280;21925;44.608;11.580;2023-05-14T07:53:43;101285.47;;;17.94;100.00
35806;BME280;21925;44.608;11.580;2023-05-14T07:56:10;101268.03;;;17.93;100.00
35806;BME280;21925;44.608;11.580;2023-05-14T07:58:37;101297.19;;;18.20;100.00
35806;BME280;21925;44.608;11.580;2023-05-14T08:01:15;101298.22;;;18.02;100.00
35806;BME280;21925;44.608;11.580;2023-05-14T08:03:42;101292.16;;;18.33;100.00
35806;BME280;21925;44.608;11.580;2023-05-14T08:06:16;101259.88;;;18.18;100.00
35806;BME280;21925;44.608;11.580;2023-05-14T08:08:46;101296.72;;;18.11;100.00
35806;BME280;21925;44.608;11.580;2023-05-14T08:11:13;101252.81;;;17.77;100.00
35806;BME280;21925;44.608;11.580;2023-05-14T08:13:40;101275.97;;;17.95;100.00
35806;BME280;21925;44.608;11.580;2023-05-14T08:16:07;101298.13;;;18.35;100.00
35806;BME280;21925;44.608;11.580;2023-05-14T08:18:37;101239.56;;;18.00;100.00
35806;BME280;21925;44.608;11.580;2023-05-14T08:21:06;101251.03;;;18.02;100.00
35806;BME280;21925;44.608;11.580;2023-05-14T08:23:32;101289.78;;;18.35;100.00
35806;BME280;21925;44.608;11.580;2023-05-14T08:26:04;101284.56;;;18.23;100.00
35806;BME280;21925;44.608;11.580;2023-05-14T08:28:30;101270.84;;;18.50;100.00
35806;BME280;21925;44.608;11.580;2023-05-14T08:30:59;101208.59;;;17.98;100.00
35806;BME280;21925;44.608;11.580;2023-05-14T08:33:27;101267.75;;;18.62;100.00
35806;BME280;21925;44.608;11.580;2023-05-14T08:35:54;101261.34;;;18.51;100.00
35806;BME280;21925;44.608;11.580;2023-05-14T08:38:23;101256.59;;;18.52;100.00
35806;BME280;21925;44.608;11.580;2023-05-14T08:40:56;101257.38;;;18.52;100.00
35806;BME280;21925;44.608;11.580;2023-05-14T08:46:12;101268.75;;;19.01;100.00
35806;BME280;21925;44.608;11.580;2023-05-14T08:48:39;101254.31;;;18.71;100.00
35806;BME280;21925;44.608;11.580;2023-05-14T08:51:07;101261.38;;;18.58;100.00
35806;BME280;21925;44.608;11.580;2023-05-14T08:53:34;101257.59;;;18.91;100.00
35806;BME280;21925;44.608;11.580;2023-05-14T08:56:05;101267.56;;;19.02;100.00
35806;BME280;21925;44.608;11.580;2023-05-14T08:58:32;101261.72;;;19.28;100.00
35806;BME280;21925;44.608;11.580;2023-05-14T09:00:58;101227.06;;;19.01;100.00
35806;BME280;21925;44.608;11.580;2023-05-14T09:03:25;101238.69;;;19.31;100.00
35806;BME280;21925;44.608;11.580;2023-05-14T09:05:52;101221.47;;;18.94;100.00
35806;BME280;21925;44.608;11.580;2023-05-14T09:08:18;101242.56;;;19.09;100.00
35806;BME280;21925;44.608;11.580;2023-05-14T09:10:46;101212.44;;;19.11;100.00
35806;BME280;21925;44.608;11.580;2023-05-14T09:13:16;101256.22;;;19.49;100.00
35806;BME280;21925;44.608;11.580;2023-05-14T09:15:42;101255.34;;;19.24;100.00
35806;BME280;21925;44.608;11.580;2023-05-14T09:18:08;101256.97;;;19.32;100.00
35806;BME280;21925;44.608;11.580;2023-05-14T09:20:34;101248.88;;;18.96;100.00
35806;BME280;21925;44.608;11.580;2023-05-14T09:23:01;101246.47;;;18.91;100.00
35806;BME280;21925;44.608;11.580;2023-05-14T09:25:33;101232.72;;;19.22;100.00
35806;BME280;21925;44.608;11.580;2023-05-14T09:27:59;101259.28;;;19.16;100.00
35806;BME280;21925;44.608;11.580;2023-05-14T09:30:31;101268.03;;;19.11;100.00
35806;BME280;21925;44.608;11.580;2023-05-14T09:32:59;101244.72;;;19.68;100.00
35806;BME280;21925;44.608;11.580;2023-05-14T09:35:26;101248.97;;;19.13;100.00
35806;BME280;21925;44.608;11.580;2023-05-14T09:37:53;101246.19;;;19.10;100.00
35806;BME280;21925;44.608;11.580;2023-05-14T09:40:23;101261.72;;;19.21;100.00
35806;BME280;21925;44.608;11.580;2023-05-14T09:42:50;101251.38;;;19.18;100.00
35806;BME280;21925;44.608;11.580;2023-05-14T09:45:26;101259.06;;;18.71;100.00
35806;BME280;21925;44.608;11.580;2023-05-14T09:47:59;101248.75;;;18.68;100.00
35806;BME280;21925;44.608;11.580;2023-05-14T09:50:30;101215.38;;;18.57;100.00
35806;BME280;21925;44.608;11.580;2023-05-14T09:52:57;101244.03;;;18.79;100.00
35806;BME280;21925;44.608;11.580;2023-05-14T09:55:25;101225.03;;;18.95;100.00
35806;BME280;21925;44.608;11.580;2023-05-14T09:57:54;101243.25;;;18.78;100.00
35806;BME280;21925;44.608;11.580;2023-05-14T10:00:21;101237.91;;;19.34;100.00
35806;BME280;21925;44.608;11.580;2023-05-14T10:02:49;101206.38;;;18.92;100.00
35806;BME280;21925;44.608;11.580;2023-05-14T10:05:23;101204.41;;;19.03;100.00
35806;BME280;21925;44.608;11.580;2023-05-14T10:07:52;101215.25;;;19.39;100.00
35806;BME280;21925;44.608;11.580;2023-05-14T10:10:26;101191.59;;;18.67;100.00
35806;BME280;21925;44.608;11.580;2023-05-14T10:13:02;101192.41;;;18.74;100.00
35806;BME280;21925;44.608;11.580;2023-05-14T10:15:47;101209.19;;;19.06;100.00
35806;BME280;21925;44.608;11.580;2023-05-14T10:18:24;101193.00;;;19.25;100.00
35806;BME280;21925;44.608;11.580;2023-05-14T10:21:07;101184.97;;;19.03;100.00
35806;BME280;21925;44.608;11.580;2023-05-14T10:23:39;101178.16;;;18.79;100.00
35806;BME280;21925;44.608;11.580;2023-05-14T10:26:11;101216.41;;;19.17;100.00
35806;BME280;21925;44.608;11.580;2023-05-14T10:28:43;101206.81;;;18.97;100.00
35806;BME280;21925;44.608;11.580;2023-05-14T10:31:12;101200.00;;;18.84;100.00
35806;BME280;21925;44.608;11.580;2023-05-14T10:33:50;101219.06;;;18.86;100.00
35806;BME280;21925;44.608;11.580;2023-05-14T10:36:18;101213.88;;;18.81;100.00
35806;BME280;21925;44.608;11.580;2023-05-14T10:38:46;101207.88;;;18.72;100.00
35806;BME280;21925;44.608;11.580;2023-05-14T10:41:16;101213.75;;;18.53;100.00
35806;BME280;21925;44.608;11.580;2023-05-14T10:43:47;101204.19;;;18.50;100.00
35806;BME280;21925;44.608;11.580;2023-05-14T10:46:18;101199.88;;;18.53;100.00
35806;BME280;21925;44.608;11.580;2023-05-14T10:48:44;101175.91;;;18.24;100.00
35806;BME280;21925;44.608;11.580;2023-05-14T10:51:14;101217.22;;;18.33;100.00
35806;BME280;21925;44.608;11.580;2023-05-14T10:53:43;101194.63;;;18.38;100.00
35806;BME280;21925;44.608;11.580;2023-05-14T10:56:12;101205.72;;;18.38;100.00
35806;BME280;21925;44.608;11.580;2023-05-14T10:58:43;101222.22;;;18.17;100.00
35806;BME280;21925;44.608;11.580;2023-05-14T11:01:12;101210.28;;;18.09;100.00
35806;BME280;21925;44.608;11.580;2023-05-14T11:03:44;101188.31;;;17.90;100.00
35806;BME280;21925;44.608;11.580;2023-05-14T11:06:14;101191.75;;;17.73;100.00
35806;BME280;21925;44.608;11.580;2023-05-14T11:08:43;101214.09;;;17.87;100.00
35806;BME280;21925;44.608;11.580;2023-05-14T11:11:12;101215.41;;;17.57;100.00
35806;BME280;21925;44.608;11.580;2023-05-14T11:13:41;101224.91;;;17.59;100.00
35806;BME280;21925;44.608;11.580;2023-05-14T11:16:15;101217.75;;;17.19;100.00
35806;BME280;21925;44.608;11.580;2023-05-14T11:18:51;101200.34;;;17.18;100.00
35806;BME280;21925;44.608;11.580;2023-05-14T11:21:20;101237.72;;;17.31;100.00
35806;BME280;21925;44.608;11.580;2023-05-14T11:23:55;101226.44;;;17.17;100.00
35806;BME280;21925;44.608;11.580;2023-05-14T11:26:23;101207.56;;;16.93;100.00
35806;BME280;21925;44.608;11.580;2023-05-14T11:28:51;101229.06;;;17.36;100.00
35806;BME280;21925;44.608;11.580;2023-05-14T11:31:20;101209.16;;;16.94;100.00
35806;BME280;21925;44.608;11.580;2023-05-14T11:33:55;101204.53;;;17.05;100.00
35806;BME280;21925;44.608;11.580;2023-05-14T11:36:23;101167.31;;;16.70;100.00
35806;BME280;21925;44.608;11.580;2023-05-14T11:38:57;101212.69;;;16.91;100.00
35806;BME280;21925;44.608;11.580;2023-05-14T11:41:28;101220.75;;;17.03;100.00
35806;BME280;21925;44.608;11.580;2023-05-14T11:44:09;101218.81;;;17.07;100.00
35806;BME280;21925;44.608;11.580;2023-05-14T11:46:39;101223.59;;;17.10;100.00
35806;BME280;21925;44.608;11.580;2023-05-14T11:49:09;101206.56;;;17.08;100.00
35806;BME280;21925;44.608;11.580;2023-05-14T11:51:46;101219.56;;;17.04;100.00
35806;BME280;21925;44.608;11.580;2023-05-14T11:54:20;101219.47;;;16.97;100.00
35806;BME280;21925;44.608;11.580;2023-05-14T11:56:50;101203.53;;;17.20;100.00
35806;BME280;21925;44.608;11.580;2023-05-14T11:59:18;101196.78;;;16.85;100.00
35806;BME280;21925;44.608;11.580;2023-05-14T12:01:53;101193.44;;;17.05;100.00
35806;BME280;21925;44.608;11.580;2023-05-14T12:04:21;101214.25;;;17.25;100.00
35806;BME280;21925;44.608;11.580;2023-05-14T12:06:48;101183.69;;;17.15;100.00
35806;BME280;21925;44.608;11.580;2023-05-14T12:09:20;101216.63;;;17.63;100.00
35806;BME280;21925;44.608;11.580;2023-05-14T12:11:52;101206.22;;;17.53;100.00
35806;BME280;21925;44.608;11.580;2023-05-14T12:14:23;101194.44;;;17.63;100.00
35806;BME280;21925;44.608;11.580;2023-05-14T12:16:53;101153.94;;;17.52;100.00
35806;BME280;21925;44.608;11.580;2023-05-14T12:19:21;101210.53;;;17.90;100.00
35806;BME280;21925;44.608;11.580;2023-05-14T12:21:51;101202.19;;;17.90;100.00
35806;BME280;21925;44.608;11.580;2023-05-14T12:24:24;101192.53;;;17.67;100.00
35806;BME280;21925;44.608;11.580;2023-05-14T12:27:00;101187.84;;;17.81;100.00
35806;BME280;21925;44.608;11.580;2023-05-14T12:29:28;101213.69;;;17.89;100.00
35806;BME280;21925;44.608;11.580;2023-05-14T12:31:57;101186.00;;;17.96;100.00
35806;BME280;21925;44.608;11.580;2023-05-14T12:34:26;101151.84;;;17.85;100.00
35806;BME280;21925;44.608;11.580;2023-05-14T12:37:02;101198.50;;;18.23;100.00
35806;BME280;21925;44.608;11.580;2023-05-14T12:39:34;101179.81;;;18.20;100.00
35806;BME280;21925;44.608;11.580;2023-05-14T12:42:06;101185.88;;;18.36;100.00
35806;BME280;21925;44.608;11.580;2023-05-14T12:44:35;101185.28;;;18.06;100.00